createdAt,value
2019-01-10T00:00:00.287Z,0
2019-01-10T00:30:00.182Z,0
2019-01-10T01:00:00.193Z,0
2019-01-10T01:30:00.289Z,67.5
2019-01-10T02:00:00.254Z,0
2019-01-10T02:30:00.198Z,0
2019-01-10T03:00:00.206Z,0
2019-01-10T03:30:00.385Z,45
2019-01-10T04:00:00.187Z,0
2019-01-10T04:30:00.304Z,0
2019-01-10T05:00:00.189Z,45
2019-01-10T05:30:00.324Z,0
2019-01-10T06:00:00.202Z,225
2019-01-10T06:30:00.298Z,180
2019-01-10T07:00:00.182Z,0
2019-01-10T07:30:00.280Z,315
2019-01-10T08:00:00.172Z,225
2019-01-10T08:30:00.184Z,270
2019-01-10T09:00:00.179Z,135
2019-01-10T09:30:00.323Z,225
2019-01-10T10:00:00.172Z,270
2019-01-10T10:30:00.319Z,270
2019-01-10T11:00:00.319Z,225
2019-01-10T11:30:00.203Z,180
2019-01-10T12:00:00.162Z,202.5
2019-01-10T12:30:00.223Z,225
2019-01-10T13:00:00.284Z,225
2019-01-10T13:30:00.240Z,337.5
2019-01-10T14:00:00.160Z,45
2019-01-10T14:30:00.231Z,0
2019-01-10T15:00:00.695Z,135
2019-01-10T15:30:00.190Z,270
2019-01-10T16:00:00.389Z,225
2019-01-10T16:30:00.221Z,225
2019-01-10T17:00:00.238Z,225
2019-01-10T19:00:00.254Z,225
2019-01-10T19:30:00.191Z,225
2019-01-10T20:00:00.240Z,225
2019-01-10T20:30:00.245Z,135
2019-01-10T21:00:00.170Z,225
2019-01-10T21:30:00.784Z,270
2019-01-10T22:00:00.274Z,225
2019-01-10T22:30:00.247Z,135
2019-01-10T23:00:00.261Z,180
2019-01-10T23:30:00.342Z,225
2019-01-10T23:30:00.473Z,270
2019-01-10T23:30:00.619Z,270
